createdAt,value
2022-09-30T00:01:33.470Z,8.24
2022-09-30T00:04:02.167Z,8.28
2022-09-30T00:06:31.452Z,8.30
2022-09-30T00:09:00.116Z,8.54
2022-09-30T00:11:30.010Z,8.65
2022-09-30T00:13:59.729Z,8.55
2022-09-30T00:16:30.986Z,8.49
2022-09-30T00:19:00.443Z,8.42
2022-09-30T00:21:29.459Z,8.49
2022-09-30T00:23:57.557Z,8.47
2022-09-30T00:26:26.316Z,8.36
2022-09-30T00:28:56.489Z,8.39
2022-09-30T00:31:27.225Z,8.36
2022-09-30T00:34:08.049Z,8.38
2022-09-30T00:36:38.134Z,8.29
2022-09-30T00:39:08.136Z,8.30
2022-09-30T00:41:37.578Z,8.28
2022-09-30T00:44:38.961Z,8.24
2022-09-30T00:47:21.367Z,8.23
2022-09-30T00:49:49.960Z,8.24
2022-09-30T00:52:17.838Z,8.22
2022-09-30T00:54:45.823Z,8.36
2022-09-30T00:57:14.018Z,8.40
2022-09-30T00:59:45.488Z,8.34
2022-09-30T01:02:15.711Z,8.32
2022-09-30T01:04:45.528Z,8.25
2022-09-30T01:07:15.137Z,8.29
2022-09-30T01:09:44.422Z,8.23
2022-09-30T01:12:16.142Z,8.15
2022-09-30T01:14:47.520Z,8.25
2022-09-30T01:17:26.314Z,8.13
2022-09-30T01:20:38.331Z,8.03
2022-09-30T01:23:29.397Z,8.04
2022-09-30T01:26:29.532Z,8.05
2022-09-30T01:29:32.170Z,8.07
2022-09-30T01:32:11.465Z,7.97
2022-09-30T01:34:52.315Z,7.88
2022-09-30T01:37:26.621Z,8.02
2022-09-30T01:40:09.646Z,8.11
2022-09-30T01:42:46.777Z,8.16
2022-09-30T01:45:19.728Z,8.19
2022-09-30T01:47:55.102Z,8.16
2022-09-30T01:50:30.906Z,8.19
2022-09-30T01:53:07.943Z,8.02
2022-09-30T01:55:43.806Z,7.96
2022-09-30T01:58:18.197Z,8.04
2022-09-30T02:00:52.214Z,8.00
2022-09-30T02:03:28.134Z,7.88
2022-09-30T02:06:02.375Z,7.77
2022-09-30T02:08:36.547Z,7.80
2022-09-30T02:11:09.241Z,7.76
2022-09-30T02:13:41.229Z,7.78
2022-09-30T02:16:14.238Z,7.91
2022-09-30T02:18:47.696Z,7.92
2022-09-30T02:21:21.174Z,7.92
2022-09-30T02:23:51.567Z,7.87
2022-09-30T02:26:25.270Z,7.88
2022-09-30T02:28:59.204Z,7.76
2022-09-30T02:31:28.171Z,7.60
2022-09-30T02:34:03.008Z,7.58
2022-09-30T02:36:36.057Z,7.58
2022-09-30T02:39:07.933Z,7.56
2022-09-30T02:41:41.740Z,7.35
2022-09-30T02:44:09.663Z,7.26
2022-09-30T02:46:46.148Z,7.17
2022-09-30T02:49:23.042Z,7.15
2022-09-30T02:52:08.444Z,7.22
2022-09-30T02:54:43.243Z,7.22
2022-09-30T02:57:19.407Z,7.25
2022-09-30T02:59:48.769Z,7.29
2022-09-30T03:02:16.783Z,7.24
2022-09-30T03:04:47.289Z,7.37
2022-09-30T03:07:15.747Z,7.30
2022-09-30T03:09:43.678Z,7.34
2022-09-30T03:12:23.407Z,7.31
2022-09-30T03:15:15.115Z,7.30
2022-09-30T03:18:22.605Z,7.21
2022-09-30T03:21:06.020Z,7.18
2022-09-30T03:23:52.621Z,7.18
2022-09-30T03:26:36.432Z,7.12
2022-09-30T03:29:12.536Z,7.07
2022-09-30T03:31:50.907Z,7.05
2022-09-30T03:34:27.628Z,7.03
2022-09-30T03:37:04.518Z,7.06
2022-09-30T03:39:44.444Z,6.93
2022-09-30T03:42:22.614Z,6.92
2022-09-30T03:45:00.500Z,6.83
2022-09-30T03:47:32.432Z,6.80
2022-09-30T03:50:04.402Z,6.88
2022-09-30T03:52:34.833Z,6.91
2022-09-30T03:55:06.576Z,6.95
2022-09-30T03:57:34.564Z,6.96
2022-09-30T04:00:06.991Z,6.93
2022-09-30T04:02:37.967Z,6.92
2022-09-30T04:05:07.481Z,6.93
2022-09-30T04:07:37.145Z,7.09
2022-09-30T04:10:06.135Z,7.03
2022-09-30T04:12:34.086Z,6.94
2022-09-30T04:15:01.968Z,6.96
2022-09-30T04:17:29.761Z,6.87
2022-09-30T04:19:57.607Z,6.69
2022-09-30T04:22:26.538Z,6.61
2022-09-30T04:24:56.956Z,6.58
2022-09-30T04:27:24.947Z,6.60
2022-09-30T04:29:52.775Z,6.59
2022-09-30T04:32:23.035Z,6.66
2022-09-30T04:34:50.916Z,6.79
2022-09-30T04:37:18.794Z,6.94
2022-09-30T04:39:46.689Z,6.97
2022-09-30T04:42:16.946Z,6.90
2022-09-30T04:44:45.233Z,6.92
2022-09-30T04:47:13.102Z,6.85
2022-09-30T04:49:40.956Z,6.77
2022-09-30T04:52:08.899Z,6.76
2022-09-30T04:54:36.714Z,6.63
2022-09-30T04:57:04.821Z,6.53
2022-09-30T04:59:35.237Z,6.55
2022-09-30T05:02:03.322Z,6.48
2022-09-30T05:04:33.551Z,6.48
2022-09-30T05:07:01.888Z,6.43
2022-09-30T05:09:29.863Z,6.47
2022-09-30T05:11:58.568Z,6.48
2022-09-30T05:14:26.347Z,6.44
2022-09-30T05:16:55.931Z,6.49
2022-09-30T05:19:25.951Z,6.57
2022-09-30T05:21:53.770Z,6.68
2022-09-30T05:24:21.733Z,6.67
2022-09-30T05:26:49.549Z,6.58
2022-09-30T05:29:17.416Z,6.49
2022-09-30T05:31:45.377Z,6.45
2022-09-30T05:34:16.709Z,6.45
2022-09-30T05:36:44.935Z,6.52
2022-09-30T05:39:13.260Z,6.49
2022-09-30T05:41:41.007Z,6.53
2022-09-30T05:44:09.448Z,6.55
2022-09-30T05:46:37.207Z,6.53
2022-09-30T05:49:04.979Z,6.52
2022-09-30T05:51:34.116Z,6.58
2022-09-30T05:54:01.865Z,6.65
2022-09-30T05:56:30.059Z,6.80
2022-09-30T05:58:57.987Z,6.94
2022-09-30T06:01:25.746Z,7.02
2022-09-30T06:03:53.493Z,7.21
2022-09-30T06:06:22.240Z,7.48
2022-09-30T06:08:51.386Z,7.59
2022-09-30T06:11:23.364Z,7.69
2022-09-30T06:13:51.171Z,7.77
2022-09-30T06:16:19.893Z,7.93
2022-09-30T06:18:47.876Z,8.03
2022-09-30T06:21:16.954Z,8.16
2022-09-30T06:23:46.521Z,8.23
2022-09-30T06:26:16.464Z,8.25
2022-09-30T06:28:44.693Z,8.39
2022-09-30T06:31:12.608Z,8.38
2022-09-30T06:33:40.797Z,8.35
2022-09-30T06:36:08.561Z,8.58
2022-09-30T06:38:37.151Z,8.80
2022-09-30T06:41:05.555Z,8.91
2022-09-30T06:43:42.995Z,9.00
2022-09-30T06:46:17.748Z,9.04
2022-09-30T06:48:48.231Z,9.15
2022-09-30T06:51:16.388Z,9.25
2022-09-30T06:53:44.253Z,9.41
2022-09-30T06:56:12.746Z,9.53
2022-09-30T06:58:45.269Z,9.63
2022-09-30T07:01:15.251Z,9.78
2022-09-30T07:03:45.722Z,9.93
2022-09-30T07:06:16.064Z,9.86
2022-09-30T07:08:43.800Z,10.11
2022-09-30T07:11:14.598Z,10.21
2022-09-30T07:13:45.954Z,10.18
2022-09-30T07:16:14.575Z,10.27
2022-09-30T07:18:43.533Z,10.46
2022-09-30T07:21:13.473Z,10.96
2022-09-30T07:23:45.607Z,12.18
2022-09-30T07:26:13.418Z,12.70
2022-09-30T07:28:41.138Z,13.07
2022-09-30T07:31:32.434Z,13.17
2022-09-30T07:34:01.827Z,12.97
2022-09-30T07:36:33.515Z,12.99
2022-09-30T07:39:05.867Z,12.63
2022-09-30T07:41:36.511Z,12.94
2022-09-30T07:44:06.350Z,12.77
2022-09-30T07:46:39.052Z,13.02
2022-09-30T07:49:12.664Z,13.21
2022-09-30T07:51:44.054Z,13.20
2022-09-30T07:54:21.105Z,13.03
2022-09-30T07:57:09.283Z,13.33
2022-09-30T07:59:39.242Z,13.12
2022-09-30T08:02:12.273Z,12.81
2022-09-30T08:04:43.709Z,13.15
2022-09-30T08:07:12.691Z,13.28
2022-09-30T08:09:40.649Z,12.85
2022-09-30T08:12:08.512Z,12.97
2022-09-30T08:14:36.343Z,13.15
2022-09-30T08:17:04.454Z,13.47
2022-09-30T08:19:35.445Z,13.53
2022-09-30T08:24:36.187Z,13.70
2022-09-30T08:27:04.105Z,12.51
2022-09-30T08:32:19.904Z,12.21
2022-09-30T08:34:49.092Z,12.45
2022-09-30T08:37:16.836Z,12.38
2022-09-30T08:39:46.772Z,12.35
2022-09-30T08:42:49.663Z,12.57
2022-09-30T08:45:27.206Z,12.81
2022-09-30T08:48:08.842Z,12.92
2022-09-30T08:51:04.994Z,13.15
2022-09-30T08:53:40.993Z,13.08
2022-09-30T08:56:09.815Z,12.91
2022-09-30T08:58:43.828Z,13.08
2022-09-30T09:01:18.743Z,13.29
2022-09-30T09:03:46.960Z,13.71
2022-09-30T09:06:27.667Z,13.81
2022-09-30T09:09:21.371Z,13.66
2022-09-30T09:12:00.885Z,13.68
2022-09-30T09:14:44.416Z,13.29
2022-09-30T09:17:28.357Z,13.22
2022-09-30T09:20:05.555Z,13.09
2022-09-30T09:22:36.603Z,13.15
2022-09-30T09:25:05.615Z,13.09
2022-09-30T09:27:45.490Z,12.98
2022-09-30T09:30:16.513Z,13.09
2022-09-30T09:32:52.106Z,12.66
2022-09-30T09:35:34.823Z,12.62
2022-09-30T09:38:27.137Z,12.74
2022-09-30T09:41:06.237Z,12.82
2022-09-30T09:43:44.187Z,12.84
2022-09-30T09:46:19.010Z,12.81
2022-09-30T09:48:46.911Z,12.33
2022-09-30T09:51:25.477Z,12.22
2022-09-30T09:53:58.171Z,12.21
2022-09-30T09:56:32.546Z,13.06
2022-09-30T09:59:13.527Z,13.19
2022-09-30T10:01:43.525Z,13.29
2022-09-30T10:04:19.188Z,13.26
2022-09-30T10:06:53.283Z,13.38
2022-09-30T10:09:36.779Z,13.22
2022-09-30T10:12:29.015Z,13.07
2022-09-30T10:15:06.063Z,13.10
2022-09-30T10:17:35.658Z,13.25
2022-09-30T10:20:08.221Z,13.78
2022-09-30T10:22:37.466Z,13.95
2022-09-30T10:25:21.235Z,13.95
2022-09-30T10:27:51.882Z,14.08
2022-09-30T10:30:36.769Z,14.10
2022-09-30T10:33:05.500Z,13.84
2022-09-30T10:35:33.435Z,13.42
2022-09-30T10:38:01.513Z,13.32
2022-09-30T10:40:31.770Z,13.21
2022-09-30T10:43:00.665Z,13.24
2022-09-30T10:45:34.526Z,13.26
2022-09-30T10:48:07.938Z,13.64
2022-09-30T10:50:36.053Z,13.63
2022-09-30T10:53:12.770Z,13.86
2022-09-30T10:55:47.098Z,14.29
2022-09-30T10:58:36.284Z,14.47
2022-09-30T11:01:13.541Z,14.98
2022-09-30T11:03:51.484Z,15.10
2022-09-30T11:06:20.530Z,15.52
2022-09-30T11:08:54.974Z,15.32
2022-09-30T11:11:29.142Z,15.40
2022-09-30T11:14:02.825Z,14.86
2022-09-30T11:16:38.236Z,14.85
2022-09-30T11:19:13.766Z,14.03
2022-09-30T11:21:46.763Z,14.17
2022-09-30T11:24:26.917Z,14.50
2022-09-30T11:27:07.587Z,14.65
2022-09-30T11:29:52.477Z,14.59
2022-09-30T11:32:31.237Z,14.55
2022-09-30T11:35:10.627Z,14.26
2022-09-30T11:37:56.450Z,14.59
2022-09-30T11:40:44.548Z,14.66
2022-09-30T11:43:28.102Z,14.70
2022-09-30T11:46:24.354Z,14.65
2022-09-30T11:49:03.610Z,14.31
2022-09-30T11:51:38.121Z,14.66
2022-09-30T11:54:22.264Z,14.92
2022-09-30T11:56:56.100Z,14.69
2022-09-30T11:59:29.599Z,15.06
2022-09-30T12:02:02.410Z,15.06
2022-09-30T12:04:33.491Z,15.21
2022-09-30T12:07:05.397Z,14.94
2022-09-30T12:09:38.301Z,14.94
2022-09-30T12:12:12.534Z,15.01
2022-09-30T12:14:50.799Z,14.99
2022-09-30T12:17:27.887Z,14.76
2022-09-30T12:19:59.298Z,14.44
2022-09-30T12:22:31.566Z,14.01
2022-09-30T12:24:59.358Z,14.10
2022-09-30T12:27:35.127Z,14.50
2022-09-30T12:30:18.096Z,14.85
2022-09-30T12:33:25.130Z,15.53
2022-09-30T12:36:29.483Z,15.92
2022-09-30T12:39:36.952Z,16.66
2022-09-30T12:42:21.632Z,16.74
2022-09-30T12:45:18.800Z,16.02
2022-09-30T12:47:52.779Z,15.62
2022-09-30T12:50:23.599Z,15.04
2022-09-30T12:52:51.811Z,14.79
2022-09-30T12:55:31.236Z,15.19
2022-09-30T12:58:02.306Z,15.39
2022-09-30T13:00:34.751Z,15.28
2022-09-30T13:03:08.047Z,15.33
2022-09-30T13:05:56.231Z,15.16
2022-09-30T13:08:51.845Z,14.85
2022-09-30T13:11:41.781Z,14.59
2022-09-30T13:14:34.900Z,14.55
2022-09-30T13:17:30.255Z,14.50
2022-09-30T13:19:58.634Z,14.33
2022-09-30T13:22:44.170Z,14.06
2022-09-30T13:25:13.948Z,13.90
2022-09-30T13:27:44.978Z,13.63
2022-09-30T13:30:41.336Z,13.86
2022-09-30T13:33:45.806Z,13.95
2022-09-30T13:36:28.655Z,14.01
2022-09-30T13:39:17.899Z,13.93
2022-09-30T13:41:48.142Z,13.87
2022-09-30T13:44:36.033Z,13.58
2022-09-30T13:47:20.250Z,13.67
2022-09-30T13:49:56.037Z,14.08
2022-09-30T13:52:28.623Z,14.24
2022-09-30T13:54:59.865Z,14.38
2022-09-30T13:57:39.988Z,14.59
2022-09-30T14:00:13.369Z,14.75
2022-09-30T14:03:14.109Z,14.68
2022-09-30T14:06:00.141Z,14.70
2022-09-30T14:09:01.171Z,14.65
2022-09-30T14:11:46.627Z,14.74
2022-09-30T14:14:43.261Z,14.73
2022-09-30T14:17:32.396Z,14.58
2022-09-30T14:20:14.612Z,14.37
2022-09-30T14:22:44.149Z,14.30
2022-09-30T14:25:16.592Z,14.31
2022-09-30T14:28:04.304Z,14.34
2022-09-30T14:30:38.812Z,14.27
2022-09-30T14:33:20.480Z,14.26
2022-09-30T14:35:49.387Z,14.13
2022-09-30T14:38:22.993Z,13.76
2022-09-30T14:40:53.151Z,13.87
2022-09-30T14:43:24.086Z,13.67
2022-09-30T14:45:56.055Z,13.67
2022-09-30T14:48:30.753Z,13.70
2022-09-30T14:51:02.091Z,13.71
2022-09-30T14:53:33.214Z,13.79
2022-09-30T14:56:02.327Z,13.95
2022-09-30T14:58:31.754Z,13.93
2022-09-30T15:01:06.863Z,13.86
2022-09-30T15:03:37.806Z,13.72
2022-09-30T15:06:07.621Z,13.72
2022-09-30T15:08:38.966Z,13.67
2022-09-30T15:11:06.978Z,13.75
2022-09-30T15:13:36.057Z,13.85
2022-09-30T15:16:03.808Z,13.88
2022-09-30T15:18:35.588Z,13.95
2022-09-30T15:21:11.263Z,13.94
2022-09-30T15:23:43.842Z,13.95
2022-09-30T15:26:14.071Z,13.71
2022-09-30T15:28:42.035Z,13.73
2022-09-30T15:31:22.113Z,13.73
2022-09-30T15:33:50.192Z,13.70
2022-09-30T15:36:19.744Z,13.67
2022-09-30T15:38:52.271Z,13.57
2022-09-30T15:41:20.174Z,13.50
2022-09-30T15:43:51.104Z,13.34
2022-09-30T15:46:23.401Z,13.26
2022-09-30T15:48:51.190Z,13.30
2022-09-30T15:51:29.076Z,13.23
2022-09-30T15:54:00.409Z,13.36
2022-09-30T15:56:36.820Z,13.39
2022-09-30T15:59:07.664Z,13.38
2022-09-30T16:01:37.998Z,13.30
2022-09-30T16:04:14.334Z,13.97
2022-09-30T16:06:48.445Z,14.27
2022-09-30T16:09:25.243Z,13.83
2022-09-30T16:12:05.232Z,13.58
2022-09-30T16:14:40.459Z,13.28
2022-09-30T16:17:17.678Z,13.10
2022-09-30T16:19:52.199Z,12.96
2022-09-30T16:22:51.540Z,12.93
2022-09-30T16:25:28.083Z,12.81
2022-09-30T16:27:59.611Z,12.79
2022-09-30T16:30:29.211Z,12.62
2022-09-30T16:32:59.224Z,12.63
2022-09-30T16:35:28.806Z,12.66
2022-09-30T16:38:01.215Z,12.57
2022-09-30T16:40:32.057Z,12.47
2022-09-30T16:43:01.323Z,12.36
2022-09-30T16:45:31.099Z,12.38
2022-09-30T16:48:01.471Z,12.39
2022-09-30T16:50:35.974Z,12.38
2022-09-30T16:53:04.000Z,12.40
2022-09-30T16:55:33.461Z,12.40
2022-09-30T16:58:01.378Z,12.38
2022-09-30T17:00:30.176Z,12.37
2022-09-30T17:02:58.015Z,12.32
2022-09-30T17:05:27.817Z,12.32
2022-09-30T17:07:57.593Z,12.35
2022-09-30T17:10:29.029Z,12.25
2022-09-30T17:13:00.244Z,12.23
2022-09-30T17:15:29.704Z,12.20
2022-09-30T17:17:57.960Z,12.20
2022-09-30T17:20:26.439Z,12.08
2022-09-30T17:22:54.369Z,12.10
2022-09-30T17:25:22.166Z,12.15
2022-09-30T17:27:50.915Z,12.14
2022-09-30T17:30:21.357Z,12.14
2022-09-30T17:32:49.161Z,12.10
2022-09-30T17:35:17.324Z,12.07
2022-09-30T17:37:46.497Z,12.05
2022-09-30T17:40:29.025Z,11.99
2022-09-30T17:43:10.764Z,11.85
2022-09-30T17:45:42.400Z,11.77
2022-09-30T17:48:11.385Z,11.69
2022-09-30T17:50:44.236Z,11.70
2022-09-30T17:53:14.133Z,11.76
2022-09-30T17:55:42.131Z,11.84
2022-09-30T17:58:11.398Z,11.90
2022-09-30T18:00:41.464Z,11.82
2022-09-30T18:03:09.919Z,11.74
2022-09-30T18:05:40.754Z,11.68
2022-09-30T18:08:08.583Z,11.52
2022-09-30T18:10:37.899Z,11.45
2022-09-30T18:13:06.288Z,11.35
2022-09-30T18:15:34.323Z,11.39
2022-09-30T18:18:03.561Z,11.39
2022-09-30T18:20:31.388Z,11.44
2022-09-30T18:22:59.109Z,11.45
2022-09-30T18:25:27.072Z,11.45
2022-09-30T18:27:58.381Z,11.38
2022-09-30T18:30:26.940Z,11.38
2022-09-30T18:32:56.151Z,11.33
2022-09-30T18:35:26.431Z,11.40
2022-09-30T18:37:54.723Z,11.48
2022-09-30T18:40:24.553Z,11.47
2022-09-30T18:42:58.469Z,11.47
2022-09-30T18:45:26.940Z,11.48
2022-09-30T18:47:56.557Z,11.51
2022-09-30T18:50:27.121Z,11.53
2022-09-30T18:52:56.900Z,11.51
2022-09-30T18:55:25.177Z,11.54
2022-09-30T18:57:55.008Z,11.57
2022-09-30T19:00:22.818Z,11.63
2022-09-30T19:02:52.989Z,11.66
2022-09-30T19:05:21.113Z,11.73
2022-09-30T19:07:50.424Z,11.77
2022-09-30T19:10:18.364Z,11.72
2022-09-30T19:12:46.106Z,11.69
2022-09-30T19:15:16.267Z,11.65
2022-09-30T19:17:50.732Z,11.65
2022-09-30T19:20:18.795Z,11.55
2022-09-30T19:22:46.825Z,11.55
2022-09-30T19:25:16.509Z,11.54
2022-09-30T19:27:46.460Z,11.51
2022-09-30T19:30:17.847Z,11.47
2022-09-30T19:32:45.735Z,11.48
2022-09-30T19:35:19.149Z,11.49
2022-09-30T19:37:57.971Z,11.50
2022-09-30T19:43:04.913Z,11.44
2022-09-30T19:45:33.115Z,11.48
2022-09-30T19:48:01.716Z,11.44
2022-09-30T19:50:30.062Z,11.31
2022-09-30T19:52:58.028Z,11.35
2022-09-30T19:55:32.919Z,11.33
2022-09-30T19:58:07.794Z,11.32
2022-09-30T20:00:35.734Z,11.30
2022-09-30T20:03:03.702Z,11.25
2022-09-30T20:05:32.378Z,11.22
2022-09-30T20:08:00.238Z,11.24
2022-09-30T20:10:33.017Z,11.17
2022-09-30T20:13:00.871Z,11.11
2022-09-30T20:15:48.557Z,11.14
2022-09-30T20:18:16.399Z,11.10
2022-09-30T20:20:45.562Z,11.15
2022-09-30T20:23:17.116Z,11.17
2022-09-30T20:25:46.340Z,11.19
2022-09-30T20:28:14.321Z,11.28
2022-09-30T20:30:45.390Z,11.29
2022-09-30T20:33:15.556Z,11.25
2022-09-30T20:35:43.389Z,11.28
2022-09-30T20:38:13.495Z,11.30
2022-09-30T20:40:41.497Z,11.26
2022-09-30T20:43:11.411Z,11.30
2022-09-30T20:45:41.383Z,11.29
2022-09-30T20:48:09.812Z,11.31
2022-09-30T20:50:42.226Z,11.27
2022-09-30T20:53:12.764Z,11.27
2022-09-30T20:55:44.463Z,11.27
2022-09-30T20:58:13.893Z,11.27
2022-09-30T21:00:43.053Z,11.31
2022-09-30T21:03:12.920Z,11.36
2022-09-30T21:05:40.774Z,11.37
2022-09-30T21:08:08.501Z,11.31
2022-09-30T21:10:38.581Z,11.26
2022-09-30T21:13:11.322Z,11.23
2022-09-30T21:15:40.647Z,11.29
2022-09-30T21:18:09.129Z,11.24
2022-09-30T21:20:37.274Z,11.21
2022-09-30T21:23:05.200Z,11.31
2022-09-30T21:25:33.287Z,11.21
2022-09-30T21:28:01.399Z,11.23
2022-09-30T21:30:29.201Z,11.18
2022-09-30T21:32:58.332Z,11.16
2022-09-30T21:35:26.137Z,11.12
2022-09-30T21:37:53.971Z,11.08
2022-09-30T21:40:21.716Z,11.00
2022-09-30T21:42:49.476Z,10.90
2022-09-30T21:45:18.308Z,11.01
2022-09-30T21:47:46.023Z,10.97
2022-09-30T21:50:18.033Z,10.90
2022-09-30T21:52:47.340Z,10.85
2022-09-30T21:55:15.248Z,10.81
2022-09-30T21:57:43.300Z,10.71
2022-09-30T22:00:14.586Z,10.64
2022-09-30T22:02:43.857Z,10.65
2022-09-30T22:05:12.089Z,10.56
2022-09-30T22:07:42.130Z,10.48
2022-09-30T22:10:10.462Z,10.35
2022-09-30T22:12:38.218Z,10.38
2022-09-30T22:15:06.748Z,10.38
2022-09-30T22:17:34.519Z,10.40
2022-09-30T22:20:02.500Z,10.37
2022-09-30T22:22:30.286Z,10.38
2022-09-30T22:24:59.342Z,10.40
2022-09-30T22:27:27.345Z,10.30
2022-09-30T22:29:55.223Z,10.28
2022-09-30T22:32:23.007Z,10.25
2022-09-30T22:35:08.350Z,10.27
2022-09-30T22:38:02.154Z,10.33
2022-09-30T22:40:31.288Z,10.31
2022-09-30T22:42:59.046Z,10.32
2022-09-30T22:45:26.853Z,10.28
2022-09-30T22:47:55.272Z,10.28
2022-09-30T22:50:24.987Z,10.29
2022-09-30T22:52:52.798Z,10.24
2022-09-30T22:55:20.648Z,10.21
2022-09-30T22:57:49.758Z,10.21
2022-09-30T23:00:17.791Z,10.34
2022-09-30T23:02:45.567Z,10.42
2022-09-30T23:05:15.258Z,10.49
2022-09-30T23:07:43.066Z,10.43
2022-09-30T23:10:11.157Z,10.30
2022-09-30T23:12:38.921Z,10.29
2022-09-30T23:15:09.077Z,10.22
2022-09-30T23:17:36.783Z,10.19
2022-09-30T23:20:05.276Z,10.21
2022-09-30T23:22:33.257Z,10.18
2022-09-30T23:25:02.697Z,10.21
2022-09-30T23:27:30.554Z,10.24
2022-09-30T23:29:58.378Z,10.24
2022-09-30T23:32:28.031Z,10.33
2022-09-30T23:34:55.764Z,10.39
2022-09-30T23:37:23.561Z,10.46
2022-09-30T23:39:51.374Z,10.50
2022-09-30T23:42:20.155Z,10.53
2022-09-30T23:44:47.927Z,10.56
2022-09-30T23:47:21.447Z,10.58
2022-09-30T23:49:50.976Z,10.46
2022-09-30T23:52:18.795Z,10.49
2022-09-30T23:54:46.933Z,10.51
2022-09-30T23:57:14.993Z,10.53
2022-09-30T23:59:42.839Z,10.62
